Portada
METAR-TAF:

METAR-TAF

Aeroports :

Fourchambault

Nevers, França

latitud: 47-00N, longitud: 003-06E, altitud: 180 m

Observació

L'informe es va fer fa 1 hora i 57 minuts, a les 18:00 UTC
Vent 9 kt del Nord/Nord-Est, variant entre Nord i Est/Nord-Est
Temperatura 23°C
Humitat 31%
Pressió 1018 hPa
Visibilitat 10 km o més
sense núvols per sota de 1500 mi sense presència de cumulonimbus.

METAR: LFQG 291800Z AUTO 03009KT 360V060 CAVOK 23/05 Q1018

Hora: 21:57 (19:57 UTC)


TAF: manca

Observacions i pronòstics meteorològics de més de 4000 aeroports (METAR i TAF).

Les estacions disponibles són els punts grocs i vermells al mapa.

Posi el ratolí al punt desitjat per veure el nom de l'estació.

Feu clic per veure les observacions i els pronòstics meteorològics.

Per canviar el mapa: feu clic els botons verds amb una creu de color negre per apropar; al botó verd amb un guió per allunyar la imatge; o en les fletxes verdes per a mapes adjacents.


METAR-TAF: